CheckWX is a tool to help pilots better visualize weather data.  It is not intended as a substitute for an official pre-flight weather briefing.

15:14:17 UTC

CYND METAR
Ottawa / Gatineau Airport
Ottawa, Canada
Current

1 hour ago

CYND 201400Z 24013G18KT 15SM SCT022 SCT120 BKN200 19/15 A2960 RMK CU3AC1CI4 AC TR SLP026 DENSITY ALT 1200FT
Observed
May-20 @ 14:00 UTC
Wind
  • 240° at 13 KTS
  • Gusting to 18 KTS
Visibility
15 SM
Flight Rules
VFR
Cloud Levels
  • Scattered at 2,200' AGL
  • Scattered at 12,000' AGL
  • Broken at 20,000' AGL
Temperature
19°C / 66°F
Dewpoint
15°C / 59°F
Humidity
78%
Altimeter
29.6" Hg
Pressure
1002.42 hPa
Previous

2 hours ago

CYND 201343Z 24012G18KT 15SM BKN022 BKN120 BKN200 18/16 A2961 RMK SC6AC1CI1 AC TR SLP028 DENSITY ALT 1000FT
Observed
May-20 @ 13:43 UTC
Wind
  • 240° at 12 KTS
  • Gusting to 18 KTS
Visibility
15 SM
Flight Rules
MVFR
Cloud Levels
  • Broken at 2,200' AGL
  • Broken at 12,000' AGL
  • Broken at 20,000' AGL
Temperature
18°C / 64°F
Dewpoint
16°C / 61°F
Humidity
88%
Altimeter
29.61" Hg
Pressure
1002.72 hPa
Previous

2 hours ago

CYND 201300Z 21002KT 12SM OVC011 17/15 A2961 RMK SC8 SLP028 DENSITY ALT 900FT
Observed
May-20 @ 13:00 UTC
Wind
  • 210° at 2 KTS
Visibility
12 SM
Flight Rules
MVFR
Cloud Levels
  • Overcast at 1,100' AGL
Temperature
17°C / 63°F
Dewpoint
15°C / 59°F
Humidity
88%
Altimeter
29.61" Hg
Pressure
1002.72 hPa